sensor_id;sensor_type;location;lat;lon;timestamp;pressure;altitude;pressure_sealevel;temperature;humidity
62708;BME280;48769;51.624;5.886;2023-03-03T00:02:14;102222.19;;;1.10;100.00
62708;BME280;48769;51.624;5.886;2023-03-03T00:04:39;102225.63;;;1.06;100.00
62708;BME280;48769;51.624;5.886;2023-03-03T00:07:05;102224.78;;;1.07;100.00
62708;BME280;48769;51.624;5.886;2023-03-03T00:09:30;102234.28;;;1.05;100.00
62708;BME280;48769;51.624;5.886;2023-03-03T00:11:58;102234.25;;;1.04;100.00
62708;BME280;48769;51.624;5.886;2023-03-03T00:14:30;102232.41;;;0.93;100.00
62708;BME280;48769;51.624;5.886;2023-03-03T00:16:57;102233.31;;;0.97;100.00
62708;BME280;48769;51.624;5.886;2023-03-03T00:19:24;102237.63;;;0.92;100.00
62708;BME280;48769;51.624;5.886;2023-03-03T00:21:51;102237.59;;;0.90;100.00
62708;BME280;48769;51.624;5.886;2023-03-03T00:24:36;102243.66;;;0.91;100.00
62708;BME280;48769;51.624;5.886;2023-03-03T00:27:16;102240.19;;;0.90;100.00
62708;BME280;48769;51.624;5.886;2023-03-03T00:29:45;102243.66;;;0.91;100.00
62708;BME280;48769;51.624;5.886;2023-03-03T00:32:37;102248.09;;;0.98;100.00
62708;BME280;48769;51.624;5.886;2023-03-03T00:35:30;102245.50;;;0.98;100.00
62708;BME280;48769;51.624;5.886;2023-03-03T00:38:01;102244.63;;;1.01;100.00
62708;BME280;48769;51.624;5.886;2023-03-03T00:40:35;102246.41;;;1.03;100.00
62708;BME280;48769;51.624;5.886;2023-03-03T00:43:01;102251.59;;;1.02;100.00
62708;BME280;48769;51.624;5.886;2023-03-03T00:46:02;102259.41;;;1.03;100.00
62708;BME280;48769;51.624;5.886;2023-03-03T00:53:36;102252.53;;;1.08;100.00
62708;BME280;48769;51.624;5.886;2023-03-03T00:56:01;102256.06;;;1.16;100.00
62708;BME280;48769;51.624;5.886;2023-03-03T00:58:26;102256.06;;;1.16;100.00
62708;BME280;48769;51.624;5.886;2023-03-03T01:00:53;102263.84;;;1.13;100.00
62708;BME280;48769;51.624;5.886;2023-03-03T01:03:23;102263.06;;;1.21;100.00
62708;BME280;48769;51.624;5.886;2023-03-03T01:05:49;102253.41;;;1.07;100.00
62708;BME280;48769;51.624;5.886;2023-03-03T01:08:16;102251.56;;;0.99;100.00
62708;BME280;48769;51.624;5.886;2023-03-03T01:10:47;102255.88;;;0.95;100.00
62708;BME280;48769;51.624;5.886;2023-03-03T01:13:18;102261.06;;;0.95;100.00
62708;BME280;48769;51.624;5.886;2023-03-03T01:15:44;102261.84;;;0.86;100.00
62708;BME280;48769;51.624;5.886;2023-03-03T01:18:11;102262.66;;;0.84;100.00
62708;BME280;48769;51.624;5.886;2023-03-03T01:20:37;102262.66;;;0.84;100.00
62708;BME280;48769;51.624;5.886;2023-03-03T01:23:03;102270.47;;;0.84;100.00
62708;BME280;48769;51.624;5.886;2023-03-03T01:25:29;102270.44;;;0.81;100.00
62708;BME280;48769;51.624;5.886;2023-03-03T01:27:55;102272.19;;;0.82;100.00
62708;BME280;48769;51.624;5.886;2023-03-03T01:30:21;102276.50;;;0.80;100.00
62708;BME280;48769;51.624;5.886;2023-03-03T01:32:46;102274.84;;;0.85;100.00
62708;BME280;48769;51.624;5.886;2023-03-03T01:35:12;102268.84;;;0.93;100.00
62708;BME280;48769;51.624;5.886;2023-03-03T01:37:37;102273.09;;;0.87;100.00
62708;BME280;48769;51.624;5.886;2023-03-03T01:40:04;102270.47;;;0.82;100.00
62708;BME280;48769;51.624;5.886;2023-03-03T01:42:30;102269.69;;;0.91;100.00
62708;BME280;48769;51.624;5.886;2023-03-03T01:48:17;102271.47;;;0.95;100.00
62708;BME280;48769;51.624;5.886;2023-03-03T01:50:54;102267.06;;;0.88;100.00
62708;BME280;48769;51.624;5.886;2023-03-03T01:53:36;102265.31;;;0.85;100.00
62708;BME280;48769;51.624;5.886;2023-03-03T01:56:04;102264.41;;;0.82;100.00
62708;BME280;48769;51.624;5.886;2023-03-03T01:58:39;102268.78;;;0.86;100.00
62708;BME280;48769;51.624;5.886;2023-03-03T02:01:13;102264.38;;;0.79;100.00
62708;BME280;48769;51.624;5.886;2023-03-03T02:03:40;102278.19;;;0.78;100.00
62708;BME280;48769;51.624;5.886;2023-03-03T02:06:12;102270.34;;;0.72;100.00
62708;BME280;48769;51.624;5.886;2023-03-03T02:08:47;102268.59;;;0.70;100.00
62708;BME280;48769;51.624;5.886;2023-03-03T02:11:15;102273.75;;;0.66;100.00
62708;BME280;48769;51.624;5.886;2023-03-03T02:13:41;102279.81;;;0.66;100.00
62708;BME280;48769;51.624;5.886;2023-03-03T02:16:06;102274.59;;;0.66;100.00
62708;BME280;48769;51.624;5.886;2023-03-03T02:18:32;102275.28;;;0.50;100.00
62708;BME280;48769;51.624;5.886;2023-03-03T02:23:49;102275.44;;;0.62;100.00
62708;BME280;48769;51.624;5.886;2023-03-03T02:26:21;102275.34;;;0.56;100.00
62708;BME280;48769;51.624;5.886;2023-03-03T02:28:48;102282.25;;;0.53;100.00
62708;BME280;48769;51.624;5.886;2023-03-03T02:31:15;102284.94;;;0.59;100.00
62708;BME280;48769;51.624;5.886;2023-03-03T02:33:44;102279.78;;;0.63;100.00
62708;BME280;48769;51.624;5.886;2023-03-03T02:36:12;102271.16;;;0.67;100.00
62708;BME280;48769;51.624;5.886;2023-03-03T02:44:25;102276.34;;;0.67;100.00
62708;BME280;48769;51.624;5.886;2023-03-03T02:46:52;102280.69;;;0.65;100.00
62708;BME280;48769;51.624;5.886;2023-03-03T02:49:23;102278.03;;;0.62;100.00
62708;BME280;48769;51.624;5.886;2023-03-03T02:51:50;102274.50;;;0.57;100.00
62708;BME280;48769;51.624;5.886;2023-03-03T02:54:17;102273.66;;;0.61;100.00
62708;BME280;48769;51.624;5.886;2023-03-03T02:56:43;102272.88;;;0.65;100.00
62708;BME280;48769;51.624;5.886;2023-03-03T02:59:09;102269.44;;;0.69;100.00
62708;BME280;48769;51.624;5.886;2023-03-03T03:01:35;102272.78;;;0.59;100.00
62708;BME280;48769;51.624;5.886;2023-03-03T03:04:15;102272.88;;;0.65;100.00
62708;BME280;48769;51.624;5.886;2023-03-03T03:06:41;102275.47;;;0.65;100.00
62708;BME280;48769;51.624;5.886;2023-03-03T03:09:08;102267.75;;;0.72;100.00
62708;BME280;48769;51.624;5.886;2023-03-03T03:11:34;102273.03;;;0.81;100.00
62708;BME280;48769;51.624;5.886;2023-03-03T03:14:01;102272.25;;;0.86;100.00
62708;BME280;48769;51.624;5.886;2023-03-03T03:16:26;102268.78;;;0.86;100.00
62708;BME280;48769;51.624;5.886;2023-03-03T03:18:52;102268.72;;;0.83;100.00
62708;BME280;48769;51.624;5.886;2023-03-03T03:21:17;102266.13;;;0.83;100.00
62708;BME280;48769;51.624;5.886;2023-03-03T03:23:43;102279.13;;;0.84;100.00
62708;BME280;48769;51.624;5.886;2023-03-03T03:26:08;102283.47;;;0.84;100.00
62708;BME280;48769;51.624;5.886;2023-03-03T03:28:35;102287.78;;;0.79;100.00
62708;BME280;48769;51.624;5.886;2023-03-03T03:31:01;102286.00;;;0.78;100.00
62708;BME280;48769;51.624;5.886;2023-03-03T03:33:26;102285.97;;;0.73;100.00
62708;BME280;48769;51.624;5.886;2023-03-03T03:35:52;102281.75;;;0.83;100.00
62708;BME280;48769;51.624;5.886;2023-03-03T03:38:20;102282.56;;;0.80;100.00
62708;BME280;48769;51.624;5.886;2023-03-03T03:40:46;102284.41;;;0.89;100.00
62708;BME280;48769;51.624;5.886;2023-03-03T03:43:11;102280.13;;;0.94;100.00
62708;BME280;48769;51.624;5.886;2023-03-03T03:45:36;102286.19;;;0.91;100.00
62708;BME280;48769;51.624;5.886;2023-03-03T03:48:02;102276.66;;;0.92;100.00
62708;BME280;48769;51.624;5.886;2023-03-03T03:50:27;102280.13;;;0.94;100.00
62708;BME280;48769;51.624;5.886;2023-03-03T03:52:53;102281.84;;;0.92;100.00
62708;BME280;48769;51.624;5.886;2023-03-03T03:55:18;102280.09;;;0.88;100.00
62708;BME280;48769;51.624;5.886;2023-03-03T03:57:43;102287.84;;;0.85;100.00
62708;BME280;48769;51.624;5.886;2023-03-03T04:00:10;102288.66;;;0.81;100.00
62708;BME280;48769;51.624;5.886;2023-03-03T04:02:36;102289.63;;;0.89;100.00
62708;BME280;48769;51.624;5.886;2023-03-03T04:05:02;102287.97;;;0.96;100.00
62708;BME280;48769;51.624;5.886;2023-03-03T04:07:27;102288.03;;;1.03;100.00
62708;BME280;48769;51.624;5.886;2023-03-03T04:09:52;102292.41;;;1.04;100.00
62708;BME280;48769;51.624;5.886;2023-03-03T04:12:18;102292.38;;;1.03;100.00
62708;BME280;48769;51.624;5.886;2023-03-03T04:14:43;102285.41;;;1.00;100.00
62708;BME280;48769;51.624;5.886;2023-03-03T04:17:15;102285.44;;;1.02;100.00
62708;BME280;48769;51.624;5.886;2023-03-03T04:19:40;102293.97;;;0.90;100.00
62708;BME280;48769;51.624;5.886;2023-03-03T04:22:06;102296.53;;;0.87;100.00
62708;BME280;48769;51.624;5.886;2023-03-03T04:24:31;102295.69;;;0.89;100.00
62708;BME280;48769;51.624;5.886;2023-03-03T04:26:56;102297.44;;;0.89;100.00
62708;BME280;48769;51.624;5.886;2023-03-03T04:29:22;102295.63;;;0.82;100.00
62708;BME280;48769;51.624;5.886;2023-03-03T04:31:47;102298.13;;;0.76;100.00
62708;BME280;48769;51.624;5.886;2023-03-03T04:34:12;102302.56;;;0.83;100.00
62708;BME280;48769;51.624;5.886;2023-03-03T04:36:37;102299.03;;;0.81;100.00
62708;BME280;48769;51.624;5.886;2023-03-03T04:39:03;102295.69;;;0.88;100.00
62708;BME280;48769;51.624;5.886;2023-03-03T04:41:28;102293.09;;;0.91;100.00
62708;BME280;48769;51.624;5.886;2023-03-03T04:43:53;102293.09;;;0.88;100.00
62708;BME280;48769;51.624;5.886;2023-03-03T04:46:19;102289.72;;;0.98;100.00
62708;BME280;48769;51.624;5.886;2023-03-03T04:48:44;102292.28;;;0.95;100.00
62708;BME280;48769;51.624;5.886;2023-03-03T04:51:09;102285.44;;;1.03;100.00
62708;BME280;48769;51.624;5.886;2023-03-03T04:53:35;102290.69;;;1.06;100.00
62708;BME280;48769;51.624;5.886;2023-03-03T04:56:02;102293.38;;;1.15;100.00
62708;BME280;48769;51.624;5.886;2023-03-03T04:58:28;102296.06;;;1.22;100.00
62708;BME280;48769;51.624;5.886;2023-03-03T05:00:55;102290.81;;;1.20;100.00
62708;BME280;48769;51.624;5.886;2023-03-03T05:03:21;102297.78;;;1.23;100.00
62708;BME280;48769;51.624;5.886;2023-03-03T05:05:47;102311.69;;;1.25;100.00
62708;BME280;48769;51.624;5.886;2023-03-03T05:08:13;102305.63;;;1.24;100.00
62708;BME280;48769;51.624;5.886;2023-03-03T05:10:38;102301.38;;;1.34;100.00
62708;BME280;48769;51.624;5.886;2023-03-03T05:13:04;102300.50;;;1.30;100.00
62708;BME280;48769;51.624;5.886;2023-03-03T05:15:31;102310.06;;;1.34;100.00
62708;BME280;48769;51.624;5.886;2023-03-03T05:17:56;102306.47;;;1.22;100.00
62708;BME280;48769;51.624;5.886;2023-03-03T05:20:23;102299.53;;;1.22;100.00
62708;BME280;48769;51.624;5.886;2023-03-03T05:22:49;102310.00;;;1.30;100.00
62708;BME280;48769;51.624;5.886;2023-03-03T05:25:14;102310.00;;;1.30;100.00
62708;BME280;48769;51.624;5.886;2023-03-03T05:27:39;102309.97;;;1.24;100.00
62708;BME280;48769;51.624;5.886;2023-03-03T05:30:05;102305.72;;;1.36;100.00
62708;BME280;48769;51.624;5.886;2023-03-03T05:32:31;102308.38;;;1.39;100.00
62708;BME280;48769;51.624;5.886;2023-03-03T05:34:56;102304.97;;;1.45;100.00
62708;BME280;48769;51.624;5.886;2023-03-03T05:37:22;102304.94;;;1.40;100.00
62708;BME280;48769;51.624;5.886;2023-03-03T05:39:48;102310.06;;;1.34;100.00
62708;BME280;48769;51.624;5.886;2023-03-03T05:42:14;102313.53;;;1.35;100.00
62708;BME280;48769;51.624;5.886;2023-03-03T05:44:39;102312.66;;;1.36;100.00
62708;BME280;48769;51.624;5.886;2023-03-03T05:47:04;102310.94;;;1.35;100.00
62708;BME280;48769;51.624;5.886;2023-03-03T05:49:30;102318.78;;;1.38;100.00
62708;BME280;48769;51.624;5.886;2023-03-03T05:51:55;102310.13;;;1.40;100.00
62708;BME280;48769;51.624;5.886;2023-03-03T05:54:20;102307.59;;;1.47;100.00
62708;BME280;48769;51.624;5.886;2023-03-03T05:56:46;102311.97;;;1.52;100.00
62708;BME280;48769;51.624;5.886;2023-03-03T05:59:11;102308.59;;;1.59;100.00
62708;BME280;48769;51.624;5.886;2023-03-03T06:01:36;102312.00;;;1.55;100.00
62708;BME280;48769;51.624;5.886;2023-03-03T06:04:02;102317.25;;;1.61;100.00
62708;BME280;48769;51.624;5.886;2023-03-03T06:06:27;102315.53;;;1.60;100.00
62708;BME280;48769;51.624;5.886;2023-03-03T06:08:53;102312.06;;;1.60;100.00
62708;BME280;48769;51.624;5.886;2023-03-03T06:11:18;102323.34;;;1.60;100.00
62708;BME280;48769;51.624;5.886;2023-03-03T06:13:44;102325.97;;;1.63;100.00
62708;BME280;48769;51.624;5.886;2023-03-03T06:16:09;102330.34;;;1.66;100.00
62708;BME280;48769;51.624;5.886;2023-03-03T06:18:35;102324.22;;;1.59;100.00
62708;BME280;48769;51.624;5.886;2023-03-03T06:21:00;102326.84;;;1.64;100.00
62708;BME280;48769;51.624;5.886;2023-03-03T06:23:26;102334.66;;;1.66;100.00
62708;BME280;48769;51.624;5.886;2023-03-03T06:25:51;102331.22;;;1.67;100.00
62708;BME280;48769;51.624;5.886;2023-03-03T06:28:17;102340.81;;;1.75;100.00
62708;BME280;48769;51.624;5.886;2023-03-03T06:30:42;102337.34;;;1.73;100.00
62708;BME280;48769;51.624;5.886;2023-03-03T06:33:08;102345.09;;;1.69;100.00
62708;BME280;48769;51.624;5.886;2023-03-03T06:35:33;102348.59;;;1.69;100.00
62708;BME280;48769;51.624;5.886;2023-03-03T06:37:58;102354.66;;;1.68;100.00
62708;BME280;48769;51.624;5.886;2023-03-03T06:40:24;102355.50;;;1.66;100.00
62708;BME280;48769;51.624;5.886;2023-03-03T06:42:49;102362.53;;;1.73;100.00
62708;BME280;48769;51.624;5.886;2023-03-03T06:45:15;102365.19;;;1.79;100.00
62708;BME280;48769;51.624;5.886;2023-03-03T06:47:40;102366.03;;;1.78;100.00
62708;BME280;48769;51.624;5.886;2023-03-03T06:50:07;102374.75;;;1.80;100.00
62708;BME280;48769;51.624;5.886;2023-03-03T06:52:34;102368.72;;;1.87;100.00
62708;BME280;48769;51.624;5.886;2023-03-03T06:55:00;102375.72;;;1.91;100.00
62708;BME280;48769;51.624;5.886;2023-03-03T06:57:32;102376.59;;;1.93;100.00
62708;BME280;48769;51.624;5.886;2023-03-03T07:00:18;102371.41;;;1.98;100.00
62708;BME280;48769;51.624;5.886;2023-03-03T07:02:46;102368.00;;;2.02;100.00
62708;BME280;48769;51.624;5.886;2023-03-03T07:05:14;102377.56;;;2.03;100.00
62708;BME280;48769;51.624;5.886;2023-03-03T07:07:40;102378.47;;;2.06;100.00
62708;BME280;48769;51.624;5.886;2023-03-03T07:10:15;102374.13;;;2.10;100.00
62708;BME280;48769;51.624;5.886;2023-03-03T07:12:42;102380.22;;;2.10;100.00
62708;BME280;48769;51.624;5.886;2023-03-03T07:15:14;102385.50;;;2.17;100.00
62708;BME280;48769;51.624;5.886;2023-03-03T07:17:43;102388.16;;;2.21;100.00
62708;BME280;48769;51.624;5.886;2023-03-03T07:20:36;102393.31;;;2.15;100.00
62708;BME280;48769;51.624;5.886;2023-03-03T07:25:43;102388.13;;;2.18;100.00
62708;BME280;48769;51.624;5.886;2023-03-03T07:28:24;102390.78;;;2.26;100.00
62708;BME280;48769;51.624;5.886;2023-03-03T07:30:52;102387.31;;;2.30;100.00
62708;BME280;48769;51.624;5.886;2023-03-03T07:33:30;102389.97;;;2.36;100.00
62708;BME280;48769;51.624;5.886;2023-03-03T07:36:02;102395.22;;;2.38;100.00
62708;BME280;48769;51.624;5.886;2023-03-03T07:38:34;102397.81;;;2.39;100.00
62708;BME280;48769;51.624;5.886;2023-03-03T07:41:03;102410.84;;;2.36;100.00
62708;BME280;48769;51.624;5.886;2023-03-03T07:46:24;102412.63;;;2.42;100.00
62708;BME280;48769;51.624;5.886;2023-03-03T07:48:52;102403.88;;;2.33;100.00
62708;BME280;48769;51.624;5.886;2023-03-03T07:51:21;102416.09;;;2.38;100.00
62708;BME280;48769;51.624;5.886;2023-03-03T07:53:49;102417.81;;;2.39;100.00
62708;BME280;48769;51.624;5.886;2023-03-03T07:58:43;102416.13;;;2.47;100.00
62708;BME280;48769;51.624;5.886;2023-03-03T08:01:35;102416.16;;;2.48;100.00
62708;BME280;48769;51.624;5.886;2023-03-03T08:04:23;102424.88;;;2.52;100.00
62708;BME280;48769;51.624;5.886;2023-03-03T08:09:37;102422.28;;;2.56;100.00
62708;BME280;48769;51.624;5.886;2023-03-03T08:14:35;102424.13;;;2.68;100.00
62708;BME280;48769;51.624;5.886;2023-03-03T08:17:06;102428.47;;;2.72;100.00
62708;BME280;48769;51.624;5.886;2023-03-03T08:19:38;102432.03;;;2.80;100.00
62708;BME280;48769;51.624;5.886;2023-03-03T08:22:15;102435.53;;;2.86;100.00
62708;BME280;48769;51.624;5.886;2023-03-03T08:24:41;102433.81;;;2.92;100.00
62708;BME280;48769;51.624;5.886;2023-03-03T08:27:07;102437.34;;;3.02;100.00
62708;BME280;48769;51.624;5.886;2023-03-03T08:29:32;102437.38;;;3.08;100.00
62708;BME280;48769;51.624;5.886;2023-03-03T08:31:57;102446.94;;;3.04;100.00
62708;BME280;48769;51.624;5.886;2023-03-03T08:34:23;102453.84;;;2.95;100.00
62708;BME280;48769;51.624;5.886;2023-03-03T08:36:48;102452.97;;;2.94;100.00
62708;BME280;48769;51.624;5.886;2023-03-03T08:39:14;102455.63;;;2.97;100.00
62708;BME280;48769;51.624;5.886;2023-03-03T08:41:39;102457.31;;;2.92;100.00
62708;BME280;48769;51.624;5.886;2023-03-03T08:44:08;102453.81;;;2.87;100.00
62708;BME280;48769;51.624;5.886;2023-03-03T08:46:33;102459.06;;;2.90;100.00
62708;BME280;48769;51.624;5.886;2023-03-03T08:48:58;102452.94;;;2.87;100.00
62708;BME280;48769;51.624;5.886;2023-03-03T08:51:24;102458.22;;;2.97;100.00
62708;BME280;48769;51.624;5.886;2023-03-03T08:53:50;102456.50;;;2.96;100.00
62708;BME280;48769;51.624;5.886;2023-03-03T08:56:16;102456.53;;;3.07;100.00
62708;BME280;48769;51.624;5.886;2023-03-03T08:58:41;102450.53;;;3.19;100.00
62708;BME280;48769;51.624;5.886;2023-03-03T09:01:13;102454.00;;;3.24;100.00
62708;BME280;48769;51.624;5.886;2023-03-03T09:03:41;102458.34;;;3.25;100.00
62708;BME280;48769;51.624;5.886;2023-03-03T09:06:06;102450.53;;;3.28;100.00
62708;BME280;48769;51.624;5.886;2023-03-03T09:08:31;102460.19;;;3.43;100.00
62708;BME280;48769;51.624;5.886;2023-03-03T09:10:57;102470.66;;;3.47;100.00
62708;BME280;48769;51.624;5.886;2023-03-03T09:13:22;102460.19;;;3.43;100.00
62708;BME280;48769;51.624;5.886;2023-03-03T09:15:48;102466.28;;;3.46;100.00
62708;BME280;48769;51.624;5.886;2023-03-03T09:18:24;102461.09;;;3.49;100.00
62708;BME280;48769;51.624;5.886;2023-03-03T09:20:55;102471.59;;;3.66;100.00
62708;BME280;48769;51.624;5.886;2023-03-03T09:25:56;102467.22;;;3.64;100.00
62708;BME280;48769;51.624;5.886;2023-03-03T09:28:24;102473.34;;;3.72;100.00
62708;BME280;48769;51.624;5.886;2023-03-03T09:30:50;102474.25;;;3.83;100.00
62708;BME280;48769;51.624;5.886;2023-03-03T09:36:17;102478.63;;;3.81;100.00
62708;BME280;48769;51.624;5.886;2023-03-03T09:38:44;102478.63;;;3.87;100.00
62708;BME280;48769;51.624;5.886;2023-03-03T09:44:21;102488.22;;;3.84;100.00
62708;BME280;48769;51.624;5.886;2023-03-03T09:49:34;102479.50;;;3.91;100.00
62708;BME280;48769;51.624;5.886;2023-03-03T09:52:25;102482.09;;;3.85;100.00
62708;BME280;48769;51.624;5.886;2023-03-03T09:55:11;102477.81;;;4.17;100.00
62708;BME280;48769;51.624;5.886;2023-03-03T10:00:42;102482.19;;;4.40;100.00
62708;BME280;48769;51.624;5.886;2023-03-03T10:03:33;102481.31;;;4.53;100.00
62708;BME280;48769;51.624;5.886;2023-03-03T10:14:38;102486.56;;;4.72;100.00
62708;BME280;48769;51.624;5.886;2023-03-03T10:17:20;102480.44;;;4.73;100.00
62708;BME280;48769;51.624;5.886;2023-03-03T10:20:00;102482.19;;;4.81;100.00
62708;BME280;48769;51.624;5.886;2023-03-03T10:25:42;102481.22;;;5.18;100.00
62708;BME280;48769;51.624;5.886;2023-03-03T10:33:48;102484.59;;;5.52;100.00
62708;BME280;48769;51.624;5.886;2023-03-03T10:47:45;102476.34;;;6.22;100.00
62708;BME280;48769;51.624;5.886;2023-03-03T11:04:10;102476.38;;;6.19;100.00
62708;BME280;48769;51.624;5.886;2023-03-03T11:07:05;102476.31;;;6.28;100.00
62708;BME280;48769;51.624;5.886;2023-03-03T11:09:43;102478.03;;;6.29;100.00
62708;BME280;48769;51.624;5.886;2023-03-03T11:12:19;102474.47;;;6.40;100.00
62708;BME280;48769;51.624;5.886;2023-03-03T11:22:33;102471.41;;;6.86;100.00
62708;BME280;48769;51.624;5.886;2023-03-03T11:25:15;102459.22;;;6.83;100.00
62708;BME280;48769;51.624;5.886;2023-03-03T11:32:49;102445.53;;;7.31;100.00
62708;BME280;48769;51.624;5.886;2023-03-03T11:35:37;102450.53;;;7.52;100.00
62708;BME280;48769;51.624;5.886;2023-03-03T11:40:52;102439.31;;;8.01;100.00
62708;BME280;48769;51.624;5.886;2023-03-03T11:43:26;102430.34;;;9.12;100.00
62708;BME280;48769;51.624;5.886;2023-03-03T11:45:59;102430.97;;;8.29;100.00
62708;BME280;48769;51.624;5.886;2023-03-03T11:48:42;102437.53;;;8.03;100.00
62708;BME280;48769;51.624;5.886;2023-03-03T11:51:19;102435.72;;;8.05;100.00
62708;BME280;48769;51.624;5.886;2023-03-03T11:54:04;102434.88;;;8.57;100.00
62708;BME280;48769;51.624;5.886;2023-03-03T11:56:45;102427.94;;;9.01;100.00
62708;BME280;48769;51.624;5.886;2023-03-03T12:05:06;102424.97;;;8.20;100.00
62708;BME280;48769;51.624;5.886;2023-03-03T12:10:57;102418.97;;;8.63;100.00
62708;BME280;48769;51.624;5.886;2023-03-03T12:19:57;102386.28;;;11.86;100.00
62708;BME280;48769;51.624;5.886;2023-03-03T12:22:33;102381.72;;;11.62;89.99
62708;BME280;48769;51.624;5.886;2023-03-03T12:25:18;102388.34;;;11.47;90.10
62708;BME280;48769;51.624;5.886;2023-03-03T12:27:50;102387.03;;;12.16;89.05
62708;BME280;48769;51.624;5.886;2023-03-03T12:38:51;102382.66;;;10.69;82.58
62708;BME280;48769;51.624;5.886;2023-03-03T12:41:32;102381.59;;;11.95;75.82
62708;BME280;48769;51.624;5.886;2023-03-03T12:44:23;102373.72;;;11.91;75.99
62708;BME280;48769;51.624;5.886;2023-03-03T12:47:01;102377.38;;;10.69;79.70
62708;BME280;48769;51.624;5.886;2023-03-03T12:52:58;102383.22;;;12.25;78.81
62708;BME280;48769;51.624;5.886;2023-03-03T12:55:46;102358.75;;;13.61;72.04
62708;BME280;48769;51.624;5.886;2023-03-03T13:04:02;102362.53;;;12.10;72.40
62708;BME280;48769;51.624;5.886;2023-03-03T13:09:10;102348.00;;;13.64;64.90
62708;BME280;48769;51.624;5.886;2023-03-03T13:14:34;102336.22;;;14.75;60.84
62708;BME280;48769;51.624;5.886;2023-03-03T13:17:19;102331.88;;;14.93;51.10
62708;BME280;48769;51.624;5.886;2023-03-03T13:19:58;102330.97;;;15.49;49.62
62708;BME280;48769;51.624;5.886;2023-03-03T13:22:36;102323.09;;;16.36;48.00
62708;BME280;48769;51.624;5.886;2023-03-03T13:25:30;102321.22;;;16.54;45.26
62708;BME280;48769;51.624;5.886;2023-03-03T13:28:12;102325.56;;;16.56;43.32
62708;BME280;48769;51.624;5.886;2023-03-03T13:30:47;102323.31;;;15.24;45.12
62708;BME280;48769;51.624;5.886;2023-03-03T13:33:25;102335.44;;;15.68;46.17
62708;BME280;48769;51.624;5.886;2023-03-03T13:36:12;102331.88;;;16.03;44.91
62708;BME280;48769;51.624;5.886;2023-03-03T13:38:47;102328.56;;;16.33;44.33
62708;BME280;48769;51.624;5.886;2023-03-03T13:41:26;102345.16;;;15.69;45.24
62708;BME280;48769;51.624;5.886;2023-03-03T13:44:37;102346.63;;;15.38;47.25
62708;BME280;48769;51.624;5.886;2023-03-03T13:47:31;102345.97;;;14.13;49.17
62708;BME280;48769;51.624;5.886;2023-03-03T13:50:22;102347.38;;;14.01;50.03
62708;BME280;48769;51.624;5.886;2023-03-03T13:53:11;102338.75;;;13.74;50.18
62708;BME280;48769;51.624;5.886;2023-03-03T13:55:52;102339.88;;;13.47;49.71
62708;BME280;48769;51.624;5.886;2023-03-03T13:58:49;102339.75;;;13.50;51.43
62708;BME280;48769;51.624;5.886;2023-03-03T14:01:23;102340.22;;;13.14;51.32
62708;BME280;48769;51.624;5.886;2023-03-03T14:06:33;102345.16;;;12.53;53.11
62708;BME280;48769;51.624;5.886;2023-03-03T14:12:02;102348.22;;;11.89;54.30
62708;BME280;48769;51.624;5.886;2023-03-03T14:14:32;102348.28;;;11.87;55.52
62708;BME280;48769;51.624;5.886;2023-03-03T14:17:30;102340.59;;;12.31;54.47
62708;BME280;48769;51.624;5.886;2023-03-03T14:20:13;102344.31;;;11.73;56.15
62708;BME280;48769;51.624;5.886;2023-03-03T14:25:12;102347.25;;;10.76;59.13
62708;BME280;48769;51.624;5.886;2023-03-03T14:35:29;102331.94;;;11.17;57.52
62708;BME280;48769;51.624;5.886;2023-03-03T14:38:00;102332.38;;;11.02;58.98
62708;BME280;48769;51.624;5.886;2023-03-03T14:40:31;102324.75;;;11.22;57.48
62708;BME280;48769;51.624;5.886;2023-03-03T14:42:59;102330.91;;;11.21;57.52
62708;BME280;48769;51.624;5.886;2023-03-03T14:45:39;102328.88;;;11.59;57.33
62708;BME280;48769;51.624;5.886;2023-03-03T14:48:25;102323.38;;;11.65;56.62
62708;BME280;48769;51.624;5.886;2023-03-03T14:50:57;102322.16;;;11.49;57.63
62708;BME280;48769;51.624;5.886;2023-03-03T14:53:36;102321.78;;;11.03;57.52
62708;BME280;48769;51.624;5.886;2023-03-03T14:56:35;102322.59;;;10.43;59.77
62708;BME280;48769;51.624;5.886;2023-03-03T15:01:38;102312.84;;;10.12;61.23
62708;BME280;48769;51.624;5.886;2023-03-03T15:04:09;102310.13;;;10.14;61.33
62708;BME280;48769;51.624;5.886;2023-03-03T15:06:47;102313.84;;;10.06;61.83
62708;BME280;48769;51.624;5.886;2023-03-03T15:09:27;102315.34;;;10.17;62.11
62708;BME280;48769;51.624;5.886;2023-03-03T15:11:58;102313.97;;;10.02;62.31
62708;BME280;48769;51.624;5.886;2023-03-03T15:14:45;102307.22;;;9.90;62.54
62708;BME280;48769;51.624;5.886;2023-03-03T15:17:28;102300.84;;;9.99;62.41
62708;BME280;48769;51.624;5.886;2023-03-03T15:25:53;102288.84;;;9.51;63.61
62708;BME280;48769;51.624;5.886;2023-03-03T15:28:35;102299.84;;;9.31;63.97
62708;BME280;48769;51.624;5.886;2023-03-03T15:36:46;102283.47;;;9.54;66.10
62708;BME280;48769;51.624;5.886;2023-03-03T15:39:31;102288.88;;;9.50;64.52
62708;BME280;48769;51.624;5.886;2023-03-03T15:42:07;102281.13;;;9.42;65.56
62708;BME280;48769;51.624;5.886;2023-03-03T15:44:58;102284.41;;;9.53;65.36
62708;BME280;48769;51.624;5.886;2023-03-03T15:52:52;102278.34;;;9.48;65.20
62708;BME280;48769;51.624;5.886;2023-03-03T15:58:10;102280.31;;;9.40;66.27
62708;BME280;48769;51.624;5.886;2023-03-03T16:03:30;102282.13;;;9.38;66.04
62708;BME280;48769;51.624;5.886;2023-03-03T16:06:05;102270.66;;;9.39;66.16
62708;BME280;48769;51.624;5.886;2023-03-03T16:11:53;102271.50;;;9.41;65.89
62708;BME280;48769;51.624;5.886;2023-03-03T16:17:27;102268.91;;;9.40;66.65
62708;BME280;48769;51.624;5.886;2023-03-03T16:26:13;102265.34;;;9.41;65.55